Time;durP1;ratioP1;P1;durP2;ratioP2;P2;SDS_P1;SDS_P2;PMS_P1;PMS_P2;Temp;Humidity;BMP_temperature;BMP_pressure;BME280_temperature;BME280_humidity;BME280_pressure;Samples;Min_cycle;Max_cycle;Signal;HPM_P1;HPM_P2
2021/11/10 00:00:21;;;;;;;6.60;5.47;;;0.90;99.90;;;;;;4957197;29;20498;-72
2021/11/10 00:02:47;;;;;;;8.07;6.00;;;0.90;99.90;;;;;;4956879;28;20422;-72
2021/11/10 00:05:14;;;;;;;10.83;5.90;;;0.90;99.90;;;;;;4957136;28;20544;-72
2021/11/10 00:07:41;;;;;;;10.97;6.30;;;0.90;99.90;;;;;;4955930;29;20407;-71
2021/11/10 00:10:07;;;;;;;10.87;7.50;;;0.90;99.90;;;;;;4957134;28;20815;-72
2021/11/10 00:12:33;;;;;;;16.40;7.37;;;0.90;99.90;;;;;;4956540;28;20455;-72
2021/11/10 00:14:59;;;;;;;8.50;5.77;;;0.80;99.90;;;;;;4956958;28;20837;-72
2021/11/10 00:17:25;;;;;;;9.00;6.50;;;0.90;99.90;;;;;;4956925;28;20178;-72
2021/11/10 00:19:51;;;;;;;10.50;7.27;;;0.90;99.90;;;;;;4956916;28;20396;-72
2021/11/10 00:22:16;;;;;;;15.33;6.70;;;0.80;99.90;;;;;;4955321;28;20975;-72
2021/11/10 00:24:42;;;;;;;10.10;7.00;;;0.80;99.90;;;;;;4956559;29;20200;-72
2021/11/10 00:27:07;;;;;;;15.20;6.50;;;0.80;99.90;;;;;;4957017;29;20179;-72
2021/11/10 00:29:33;;;;;;;8.73;4.87;;;0.80;99.90;;;;;;4956497;28;20524;-72
2021/11/10 00:31:59;;;;;;;10.10;6.40;;;0.80;99.90;;;;;;4956772;28;20223;-69
2021/11/10 00:34:24;;;;;;;11.70;5.80;;;0.80;99.90;;;;;;4956340;28;20819;-73
2021/11/10 00:36:50;;;;;;;10.87;5.93;;;0.70;99.90;;;;;;4956809;28;20190;-72
2021/11/10 00:39:15;;;;;;;8.27;5.40;;;0.70;99.90;;;;;;4956486;29;20702;-72
2021/11/10 00:41:41;;;;;;;6.90;5.43;;;0.70;99.90;;;;;;4956431;29;20231;-73
2021/11/10 00:44:06;;;;;;;8.37;6.10;;;0.70;99.90;;;;;;4956241;28;20542;-72
2021/11/10 00:46:33;;;;;;;8.03;5.90;;;0.70;99.90;;;;;;4956358;29;20168;-72
2021/11/10 00:48:59;;;;;;;10.77;5.67;;;0.70;99.90;;;;;;4955187;29;20657;-72
2021/11/10 00:51:25;;;;;;;9.93;5.80;;;0.70;99.90;;;;;;4956574;28;20451;-72
2021/11/10 00:53:50;;;;;;;16.70;8.43;;;0.70;99.90;;;;;;4956040;29;20454;-72
2021/11/10 00:56:16;;;;;;;12.00;6.87;;;0.70;99.90;;;;;;4956408;29;20180;-72
2021/11/10 00:58:42;;;;;;;19.13;8.37;;;0.70;99.90;;;;;;4954834;29;20183;-72
2021/11/10 05:33:00;;;;;;;26.43;11.40;;;-0.10;99.90;;;;;;5076904;23;20506;-69
2021/11/10 05:35:25;;;;;;;16.57;11.30;;;-0.10;99.90;;;;;;4973171;28;20814;-72
2021/11/10 05:37:51;;;;;;;22.87;11.60;;;-0.10;99.90;;;;;;4961075;28;20195;-72
2021/11/10 05:40:16;;;;;;;15.33;11.10;;;-0.10;99.90;;;;;;4973715;28;20223;-71
2021/11/10 05:42:42;;;;;;;16.50;11.33;;;-0.10;99.90;;;;;;4972526;28;20224;-70
2021/11/10 05:45:08;;;;;;;21.27;9.60;;;-0.10;99.90;;;;;;4973134;28;20268;-72
2021/11/10 05:47:34;;;;;;;18.10;11.03;;;0.00;99.90;;;;;;4973267;28;20215;-72
2021/11/10 05:49:59;;;;;;;23.53;10.27;;;0.00;99.90;;;;;;4973495;28;20840;-72
2021/11/10 05:52:25;;;;;;;17.00;10.13;;;-0.10;99.90;;;;;;4972402;28;20480;-71
2021/11/10 05:54:52;;;;;;;23.63;11.47;;;-0.10;99.90;;;;;;4972837;28;20185;-72
2021/11/10 05:57:18;;;;;;;23.97;10.97;;;-0.10;99.90;;;;;;4973592;28;20621;-72
2021/11/10 05:59:44;;;;;;;18.70;10.50;;;-0.10;99.90;;;;;;4972681;28;20394;-69
2021/11/10 06:02:10;;;;;;;18.80;9.70;;;-0.20;99.90;;;;;;4971890;28;20207;-71
2021/11/10 06:04:37;;;;;;;19.40;11.30;;;-0.20;99.90;;;;;;4972901;28;20226;-71
2021/11/10 06:07:07;;;;;;;29.50;11.93;;;-0.20;99.90;;;;;;4973327;28;20409;-68
2021/11/10 06:09:33;;;;;;;21.53;11.50;;;-0.20;99.90;;;;;;4972544;28;20412;-71
2021/11/10 06:11:58;;;;;;;19.50;11.63;;;-0.20;99.90;;;;;;4973028;28;20523;-71
2021/11/10 06:14:24;;;;;;;19.27;11.63;;;-0.20;99.90;;;;;;4972346;28;20187;-71
2021/11/10 06:16:50;;;;;;;20.57;10.57;;;-0.20;99.90;;;;;;4973102;28;20183;-72
2021/11/10 06:19:15;;;;;;;17.07;10.53;;;-0.20;99.90;;;;;;4972875;28;20182;-70
2021/11/10 06:21:41;;;;;;;14.43;9.30;;;-0.20;99.90;;;;;;4972763;28;20410;-69
2021/11/10 06:24:07;;;;;;;16.13;10.43;;;-0.20;99.90;;;;;;4972250;28;20173;-70
2021/11/10 06:26:32;;;;;;;20.03;11.90;;;-0.20;99.90;;;;;;4973234;28;20234;-71
2021/11/10 06:28:58;;;;;;;18.40;10.87;;;-0.20;99.90;;;;;;4973079;28;20184;-70
2021/11/10 06:31:24;;;;;;;20.37;10.40;;;-0.10;99.90;;;;;;4972708;28;20701;-69
2021/11/10 06:33:49;;;;;;;17.73;10.63;;;-0.20;99.90;;;;;;4971962;28;20212;-70
2021/11/10 06:36:16;;;;;;;26.30;10.40;;;-0.20;99.90;;;;;;4972735;28;20689;-70
2021/11/10 06:38:44;;;;;;;20.90;10.07;;;-0.10;99.90;;;;;;4972820;28;20414;-70
2021/11/10 06:41:10;;;;;;;20.97;11.80;;;-0.10;99.90;;;;;;4972661;28;20317;-70
2021/11/10 06:43:36;;;;;;;23.63;12.43;;;0.00;99.90;;;;;;4971972;28;20420;-70
2021/11/10 06:46:02;;;;;;;22.27;10.77;;;0.00;99.90;;;;;;4972784;28;20963;-70
2021/11/10 06:48:29;;;;;;;17.00;11.17;;;0.10;99.90;;;;;;4972523;28;20204;-71
2021/11/10 06:50:54;;;;;;;17.60;10.97;;;0.10;99.90;;;;;;4972150;28;20447;-70
2021/11/10 06:53:20;;;;;;;23.80;12.00;;;0.20;99.90;;;;;;4972124;28;20415;-70
2021/11/10 06:55:46;;;;;;;22.40;10.70;;;0.30;99.90;;;;;;4972513;28;20211;-71
2021/11/10 06:58:11;;;;;;;22.73;10.60;;;0.30;99.90;;;;;;4972642;28;20264;-70
2021/11/10 07:00:37;;;;;;;30.53;12.40;;;0.40;99.90;;;;;;4970668;28;20601;-70
2021/11/10 07:03:04;;;;;;;19.37;11.43;;;0.40;99.90;;;;;;4971817;28;20191;-67
2021/11/10 07:05:29;;;;;;;20.80;11.93;;;0.50;99.90;;;;;;4972266;28;20680;-70
2021/11/10 07:07:55;;;;;;;17.70;11.07;;;0.50;99.90;;;;;;4972417;28;20405;-71
2021/11/10 07:10:21;;;;;;;22.83;10.57;;;0.70;99.90;;;;;;4971666;28;20282;-71
2021/11/10 07:12:46;;;;;;;19.53;10.93;;;0.80;99.90;;;;;;4969745;28;20732;-70
2021/11/10 07:15:12;;;;;;;17.90;9.97;;;0.80;99.90;;;;;;4972176;28;20454;-70
2021/11/10 07:17:38;;;;;;;21.83;11.80;;;1.00;99.90;;;;;;4970832;28;20268;-71
2021/11/10 07:20:04;;;;;;;17.60;9.93;;;1.10;99.90;;;;;;4971822;28;20187;-70
2021/11/10 07:22:30;;;;;;;20.70;11.07;;;1.20;99.90;;;;;;4971068;28;20192;-70
2021/11/10 07:24:56;;;;;;;22.73;10.50;;;1.30;99.90;;;;;;4971969;28;20998;-70
2021/11/10 07:27:22;;;;;;;19.70;10.83;;;1.50;99.90;;;;;;4971878;28;20579;-69
2021/11/10 07:29:47;;;;;;;17.03;10.97;;;1.70;99.90;;;;;;4971679;28;20483;-70
2021/11/10 07:32:13;;;;;;;19.23;10.87;;;1.90;99.90;;;;;;4971046;28;21029;-67
2021/11/10 07:34:38;;;;;;;18.80;10.20;;;2.10;99.90;;;;;;4971778;28;20197;-71
2021/11/10 07:37:05;;;;;;;19.23;11.60;;;2.20;99.90;;;;;;4971920;28;20179;-71
2021/11/10 07:39:32;;;;;;;20.03;10.83;;;2.30;99.90;;;;;;4971300;28;20171;-70
2021/11/10 07:41:57;;;;;;;16.90;11.13;;;2.40;99.90;;;;;;4971691;28;20976;-68
2021/11/10 07:44:23;;;;;;;20.87;13.43;;;2.50;99.90;;;;;;4971117;28;20455;-68
2021/11/10 07:46:52;;;;;;;18.83;12.20;;;2.80;99.90;;;;;;4972050;28;20600;-71
2021/11/10 07:49:20;;;;;;;35.80;15.90;;;3.10;99.90;;;;;;4971696;28;20440;-72
2021/11/10 07:51:46;;;;;;;18.57;11.70;;;3.50;99.90;;;;;;4971333;28;20432;-71
2021/11/10 07:54:12;;;;;;;14.60;10.90;;;3.70;99.90;;;;;;4971215;28;20830;-71
2021/11/10 07:56:37;;;;;;;16.40;10.00;;;3.90;99.90;;;;;;4971785;28;20919;-70
2021/11/10 07:59:03;;;;;;;18.03;10.93;;;3.90;99.90;;;;;;4971654;28;20424;-68
2021/11/10 08:01:28;;;;;;;22.50;11.60;;;3.90;99.90;;;;;;4971112;28;20663;-71
2021/11/10 08:03:54;;;;;;;27.33;11.83;;;4.00;99.90;;;;;;4971036;28;20185;-71
2021/11/10 08:06:20;;;;;;;22.67;13.57;;;3.90;99.90;;;;;;4971728;28;20575;-71
2021/11/10 08:08:45;;;;;;;24.47;14.47;;;4.00;99.90;;;;;;4971035;28;20178;-71
2021/11/10 08:11:11;;;;;;;20.43;13.03;;;4.10;99.90;;;;;;4971616;28;20232;-71
2021/11/10 08:13:36;;;;;;;23.77;12.60;;;4.20;99.90;;;;;;4970862;28;20201;-71
2021/11/10 08:16:02;;;;;;;21.80;13.67;;;4.20;99.90;;;;;;4971495;28;20186;-71
2021/11/10 08:18:28;;;;;;;25.17;13.90;;;4.30;99.90;;;;;;4973919;28;20191;-71
2021/11/10 08:20:55;;;;;;;21.63;13.67;;;4.50;99.90;;;;;;4975449;28;20209;-71
2021/11/10 08:23:23;;;;;;;27.30;14.43;;;4.60;99.90;;;;;;4974694;28;20418;-72
2021/11/10 08:25:50;;;;;;;22.13;11.90;;;4.70;99.90;;;;;;4975269;28;20962;-71
2021/11/10 08:28:18;;;;;;;30.30;13.97;;;4.80;99.90;;;;;;4975318;28;20760;-70
2021/11/10 08:30:43;;;;;;;21.00;13.30;;;5.00;99.90;;;;;;4975028;28;20789;-70
2021/11/10 08:33:09;;;;;;;31.30;16.40;;;4.90;99.90;;;;;;4974056;28;20507;-71
2021/11/10 08:35:35;;;;;;;22.13;12.97;;;4.90;99.90;;;;;;4974872;28;20548;-71
2021/11/10 08:38:00;;;;;;;20.90;13.43;;;4.90;99.90;;;;;;4975244;28;20256;-71
2021/11/10 08:40:26;;;;;;;19.60;13.27;;;4.90;99.90;;;;;;4974597;28;20244;-73
2021/11/10 08:42:52;;;;;;;22.50;13.87;;;5.00;99.90;;;;;;4973910;28;20201;-71
2021/11/10 08:45:21;;;;;;;24.80;12.60;;;5.00;99.90;;;;;;4974928;28;20263;-71
2021/11/10 08:47:49;;;;;;;22.30;13.80;;;5.00;99.90;;;;;;4974696;28;20841;-70
2021/11/10 08:50:17;;;;;;;24.33;13.67;;;5.10;99.90;;;;;;4973612;28;20400;-70
2021/11/10 08:52:44;;;;;;;23.47;14.93;;;5.30;99.90;;;;;;4973277;28;20486;-69
2021/11/10 08:55:11;;;;;;;22.80;13.50;;;5.50;99.90;;;;;;4974862;28;20422;-71
2021/11/10 08:57:38;;;;;;;24.97;15.83;;;5.80;99.90;;;;;;4974731;28;20443;-71
2021/11/10 09:00:10;;;;;;;19.60;13.67;;;6.00;99.90;;;;;;4974682;28;20482;-70
2021/11/10 09:02:36;;;;;;;24.20;14.20;;;6.10;99.90;;;;;;4973570;28;20446;-72
2021/11/10 09:05:03;;;;;;;25.73;14.90;;;6.10;99.90;;;;;;4974529;28;20459;-70
2021/11/10 09:07:28;;;;;;;29.60;14.07;;;6.10;99.90;;;;;;4973883;28;20849;-70
2021/11/10 09:09:54;;;;;;;22.10;14.30;;;5.90;99.90;;;;;;4974551;28;20410;-71
2021/11/10 09:12:20;;;;;;;23.83;15.30;;;6.00;99.90;;;;;;4973673;28;20198;-71
2021/11/10 09:14:45;;;;;;;27.93;17.70;;;5.90;99.90;;;;;;4974259;28;20206;-70
2021/11/10 09:17:12;;;;;;;22.80;14.63;;;5.80;99.90;;;;;;4974260;28;20184;-71
2021/11/10 09:19:38;;;;;;;34.13;18.13;;;5.80;99.90;;;;;;4974214;28;20216;-71
2021/11/10 09:22:05;;;;;;;26.83;17.30;;;5.90;99.90;;;;;;4973727;28;20518;-69
2021/11/10 09:24:30;;;;;;;30.50;17.03;;;5.90;99.90;;;;;;4973508;28;20451;-71
2021/11/10 09:26:56;;;;;;;27.70;17.40;;;5.90;99.90;;;;;;4974404;28;20433;-71
2021/11/10 09:29:22;;;;;;;27.43;17.93;;;6.10;99.90;;;;;;4972672;28;20266;-71
2021/11/10 09:31:48;;;;;;;42.67;19.03;;;6.20;99.90;;;;;;4973880;28;20561;-71
2021/11/10 09:34:15;;;;;;;30.10;16.00;;;6.30;99.90;;;;;;4972912;28;20565;-69
2021/11/10 09:36:48;;;;;;;26.33;15.13;;;6.40;99.90;;;;;;4974081;28;20414;-71
2021/11/10 09:39:16;;;;;;;26.53;16.30;;;6.40;99.90;;;;;;4974008;28;20524;-69
2021/11/10 09:41:44;;;;;;;29.60;15.83;;;6.40;99.90;;;;;;4973781;28;20445;-70
2021/11/10 09:44:10;;;;;;;31.87;15.80;;;6.30;99.90;;;;;;4972933;28;20980;-71
2021/11/10 09:46:37;;;;;;;21.67;14.80;;;6.40;99.90;;;;;;4974034;28;20551;-71
2021/11/10 09:49:03;;;;;;;26.00;15.33;;;6.30;99.90;;;;;;4973958;28;20188;-68
2021/11/10 09:51:29;;;;;;;26.30;16.03;;;6.40;99.90;;;;;;4973537;28;20436;-71
2021/11/10 09:53:54;;;;;;;24.00;16.03;;;6.40;99.90;;;;;;4972771;28;20210;-71
2021/11/10 09:56:23;;;;;;;25.13;16.80;;;6.50;99.90;;;;;;4973714;28;20180;-71
2021/11/10 09:58:49;;;;;;;29.57;17.60;;;6.40;99.90;;;;;;4973735;28;20680;-71
2021/11/10 10:01:14;;;;;;;25.73;15.73;;;6.40;99.90;;;;;;4973006;28;20449;-68
2021/11/10 10:03:40;;;;;;;29.00;17.70;;;6.50;99.90;;;;;;4972968;28;20207;-71
2021/11/10 10:06:07;;;;;;;26.17;15.87;;;6.50;99.90;;;;;;4973587;28;20236;-70
2021/11/10 10:08:33;;;;;;;30.27;18.80;;;6.60;99.90;;;;;;4973201;28;20425;-71
2021/11/10 10:10:59;;;;;;;24.83;18.07;;;6.60;99.90;;;;;;4973220;28;20436;-72
2021/11/10 10:13:25;;;;;;;24.03;16.43;;;6.60;99.90;;;;;;4972233;28;20837;-71
2021/11/10 10:15:52;;;;;;;28.30;17.07;;;6.60;99.90;;;;;;4973255;28;20499;-71
2021/11/10 10:18:23;;;;;;;27.43;17.37;;;6.60;99.90;;;;;;4973578;28;20172;-70
2021/11/10 10:20:56;;;;;;;28.33;17.50;;;6.50;99.90;;;;;;4973756;28;20770;-71
2021/11/10 10:23:26;;;;;;;29.30;17.57;;;6.60;99.90;;;;;;4972538;28;20435;-71
2021/11/10 10:25:55;;;;;;;37.97;19.30;;;6.70;99.90;;;;;;4972091;28;20514;-70
2021/11/10 10:28:33;;;;;;;30.53;17.70;;;6.60;99.90;;;;;;4972860;28;20515;-70
2021/11/10 10:31:05;;;;;;;31.77;17.40;;;6.60;99.90;;;;;;4972710;28;21119;-71
2021/11/10 10:33:35;;;;;;;25.20;16.93;;;6.70;99.90;;;;;;4972259;28;20417;-70
2021/11/10 10:36:07;;;;;;;31.67;18.50;;;6.70;99.90;;;;;;4970065;28;20430;-71
2021/11/10 10:38:47;;;;;;;27.13;17.33;;;6.80;99.90;;;;;;4974258;28;20415;-69
2021/11/10 10:41:13;;;;;;;31.43;17.40;;;6.90;99.90;;;;;;4977603;28;20448;-71
2021/11/10 10:44:04;;;;;;;27.73;17.63;;;7.00;99.90;;;;;;4972310;28;20976;-71
2021/11/10 10:46:31;;;;;;;32.23;17.93;;;7.20;99.90;;;;;;4962244;28;20462;-71
2021/11/10 10:49:18;;;;;;;26.60;17.90;;;7.20;99.90;;;;;;4967626;28;20477;-71
2021/11/10 10:51:55;;;;;;;31.23;18.60;;;7.30;99.90;;;;;;4971449;28;20451;-69
2021/11/10 10:54:29;;;;;;;36.03;17.97;;;7.40;99.90;;;;;;4961355;28;20411;-71
2021/11/10 10:57:01;;;;;;;35.67;19.97;;;7.40;99.90;;;;;;4967924;28;20417;-71
2021/11/10 10:59:28;;;;;;;33.97;20.27;;;7.40;99.90;;;;;;4965307;28;20443;-71
2021/11/10 11:01:56;;;;;;;31.33;19.50;;;7.30;99.90;;;;;;4967328;28;20489;-72
2021/11/10 11:04:27;;;;;;;27.23;18.50;;;7.30;99.90;;;;;;4961187;28;21129;-72
2021/11/10 11:07:07;;;;;;;32.17;19.07;;;7.40;99.90;;;;;;4960749;28;20933;-71
2021/11/10 11:09:39;;;;;;;30.10;17.87;;;7.40;99.90;;;;;;4965050;28;20425;-71
2021/11/10 11:12:16;;;;;;;27.60;17.73;;;7.50;99.90;;;;;;4963284;28;20450;-69
2021/11/10 11:17:22;;;;;;;29.90;18.77;;;7.60;99.90;;;;;;4967000;28;20940;-71
2021/11/10 11:20:23;;;;;;;36.17;20.27;;;7.90;99.90;;;;;;4961135;28;20416;-71
2021/11/10 11:22:56;;;;;;;27.43;17.67;;;8.10;99.90;;;;;;4955735;28;20418;-71
2021/11/10 11:25:29;;;;;;;27.53;19.00;;;8.30;99.90;;;;;;4960710;28;20880;-72
2021/11/10 11:28:00;;;;;;;33.73;18.47;;;8.30;99.90;;;;;;4953285;28;20416;-71
2021/11/10 11:30:28;;;;;;;33.50;19.07;;;8.40;99.90;;;;;;4952656;28;20409;-71
2021/11/10 11:32:57;;;;;;;26.37;18.93;;;8.50;99.90;;;;;;4951996;28;20984;-72
2021/11/10 11:35:32;;;;;;;26.30;17.20;;;8.70;99.90;;;;;;4952321;28;20400;-68
2021/11/10 11:38:07;;;;;;;27.63;18.77;;;8.80;99.90;;;;;;4952623;28;20446;-71
2021/11/10 11:40:34;;;;;;;27.37;18.50;;;9.00;99.90;;;;;;4952340;28;20988;-70
2021/11/10 11:43:03;;;;;;;44.50;18.70;;;9.00;99.90;;;;;;4951727;28;20443;-70
2021/11/10 11:45:31;;;;;;;37.03;19.60;;;9.10;99.90;;;;;;4952498;28;20563;-71
2021/11/10 11:48:01;;;;;;;27.50;18.60;;;9.10;99.90;;;;;;4952119;28;20782;-70
2021/11/10 11:50:32;;;;;;;43.33;20.50;;;8.90;99.90;;;;;;4950784;28;20416;-71
2021/11/10 11:52:59;;;;;;;32.77;18.07;;;8.90;99.90;;;;;;4951963;28;20439;-71
2021/11/10 11:55:31;;;;;;;27.47;17.60;;;9.00;99.90;;;;;;4952690;28;20448;-71
2021/11/10 11:58:14;;;;;;;29.60;18.73;;;9.10;99.90;;;;;;4952778;28;20411;-72
2021/11/10 12:00:44;;;;;;;29.10;18.10;;;8.90;99.90;;;;;;4951332;29;20433;-71
2021/11/10 12:03:22;;;;;;;25.83;17.20;;;9.00;99.90;;;;;;4952294;28;20426;-71
2021/11/10 12:06:11;;;;;;;27.57;17.53;;;9.00;99.90;;;;;;4953025;28;20460;-72
2021/11/10 12:08:47;;;;;;;33.17;18.80;;;9.10;99.90;;;;;;4952519;28;20784;-72
2021/11/10 12:11:21;;;;;;;33.43;18.73;;;9.10;99.90;;;;;;4952380;28;20959;-71
2021/11/10 12:13:59;;;;;;;32.77;18.73;;;9.10;99.90;;;;;;4951903;28;20385;-71
2021/11/10 12:16:25;;;;;;;29.37;20.50;;;9.20;99.90;;;;;;4952879;29;20474;-71
2021/11/10 12:18:59;;;;;;;32.40;19.13;;;9.20;99.90;;;;;;4953220;28;20509;-71
2021/11/10 12:21:39;;;;;;;32.83;19.90;;;9.20;99.90;;;;;;4952405;28;20940;-71
2021/11/10 12:24:10;;;;;;;31.90;19.37;;;9.20;99.90;;;;;;4952895;28;20413;-69
2021/11/10 12:27:14;;;;;;;26.80;20.07;;;9.20;99.90;;;;;;4953585;28;20492;-71
2021/11/10 12:29:39;;;;;;;41.50;19.67;;;9.20;99.90;;;;;;4952865;29;20505;-72
2021/11/10 12:32:05;;;;;;;27.60;18.17;;;9.10;99.90;;;;;;4951947;28;20550;-68
2021/11/10 12:34:33;;;;;;;41.23;19.90;;;9.20;99.90;;;;;;4952353;28;20174;-71
2021/11/10 12:37:03;;;;;;;30.90;20.57;;;9.30;99.90;;;;;;4952667;28;20179;-71
2021/11/10 12:39:31;;;;;;;31.70;20.50;;;9.20;99.90;;;;;;4952353;28;20406;-71
2021/11/10 12:42:03;;;;;;;34.47;19.53;;;9.20;99.90;;;;;;4952205;28;20526;-70
2021/11/10 12:44:31;;;;;;;27.73;18.50;;;9.20;99.90;;;;;;4952084;28;20439;-71
2021/11/10 12:46:57;;;;;;;40.90;20.20;;;9.30;99.90;;;;;;4952395;28;20836;-71
2021/11/10 12:49:23;;;;;;;28.00;19.40;;;9.20;99.90;;;;;;4951346;28;21091;-69
2021/11/10 12:52:16;;;;;;;43.80;20.73;;;9.20;99.90;;;;;;4951985;28;20444;-72
2021/11/10 12:54:48;;;;;;;32.27;20.73;;;9.20;99.90;;;;;;4950282;28;20436;-72
2021/11/10 12:57:32;;;;;;;31.77;22.53;;;9.20;99.90;;;;;;4960622;28;20468;-71
2021/11/10 12:59:58;;;;;;;38.07;21.00;;;9.30;99.90;;;;;;4978328;28;20521;-71
2021/11/10 13:02:26;;;;;;;39.87;20.40;;;9.30;99.90;;;;;;4983208;28;20811;-72
2021/11/10 13:04:56;;;;;;;29.43;19.40;;;9.40;99.90;;;;;;4993960;28;20904;-71
2021/11/10 13:07:25;;;;;;;30.20;20.87;;;9.50;99.90;;;;;;4994684;28;20979;-73
2021/11/10 13:10:08;;;;;;;33.40;20.63;;;9.40;99.90;;;;;;4994373;28;20421;-71
2021/11/10 13:12:34;;;;;;;43.93;21.30;;;9.50;99.90;;;;;;4977304;28;20475;-71
2021/11/10 13:15:03;;;;;;;40.50;19.53;;;9.20;99.90;;;;;;4955829;28;20863;-71
2021/11/10 13:17:32;;;;;;;32.30;19.33;;;9.20;99.90;;;;;;4955634;28;20480;-71
2021/11/10 13:20:11;;;;;;;36.13;21.23;;;9.10;99.90;;;;;;4974557;28;20488;-71
2021/11/10 13:22:48;;;;;;;29.37;21.13;;;9.20;99.90;;;;;;4972655;28;20441;-71
2021/11/10 13:25:27;;;;;;;30.23;19.80;;;9.20;99.90;;;;;;4975967;28;21020;-70
2021/11/10 13:27:56;;;;;;;34.57;21.33;;;9.20;99.90;;;;;;4974532;28;20769;-72
2021/11/10 13:30:43;;;;;;;31.97;20.60;;;9.20;99.90;;;;;;4966356;28;20515;-73
2021/11/10 13:33:33;;;;;;;40.10;21.50;;;9.20;99.90;;;;;;4967087;28;20481;-71
2021/11/10 13:36:20;;;;;;;29.07;19.57;;;9.20;99.90;;;;;;4979250;28;20431;-69
2021/11/10 13:39:00;;;;;;;27.03;18.80;;;9.20;99.90;;;;;;4974929;28;20485;-69
2021/11/10 13:41:47;;;;;;;32.70;19.27;;;9.20;99.90;;;;;;4981461;28;20416;-71
2021/11/10 13:44:23;;;;;;;37.70;21.63;;;9.10;99.90;;;;;;4973560;28;20490;-71
2021/11/10 13:47:02;;;;;;;33.27;19.53;;;9.10;99.90;;;;;;4971995;28;20512;-71
2021/11/10 13:49:32;;;;;;;34.47;19.53;;;9.10;99.90;;;;;;4973811;28;20915;-71
2021/11/10 13:52:02;;;;;;;24.37;19.00;;;9.10;99.90;;;;;;4973498;28;20434;-71
2021/11/10 13:54:32;;;;;;;29.17;19.40;;;9.10;99.90;;;;;;4973422;28;20468;-71
2021/11/10 13:57:03;;;;;;;32.83;20.77;;;9.10;99.90;;;;;;4974183;28;20406;-71
2021/11/10 13:59:35;;;;;;;34.03;19.93;;;9.00;99.90;;;;;;4973057;28;20408;-71
2021/11/10 14:02:12;;;;;;;31.53;18.90;;;9.00;99.90;;;;;;4973316;28;20943;-69
2021/11/10 14:04:40;;;;;;;28.70;19.40;;;9.00;99.90;;;;;;4973700;28;20496;-71
2021/11/10 14:07:25;;;;;;;31.83;17.43;;;9.00;99.90;;;;;;4973794;28;20545;-72
2021/11/10 14:10:00;;;;;;;31.80;17.70;;;9.10;99.90;;;;;;4973421;28;20469;-71
2021/11/10 14:12:33;;;;;;;32.30;17.83;;;9.10;99.90;;;;;;4972426;28;20984;-70
2021/11/10 14:15:03;;;;;;;28.33;17.87;;;9.20;99.90;;;;;;4972803;28;20410;-70
2021/11/10 14:17:31;;;;;;;26.57;18.00;;;9.20;99.90;;;;;;4973440;28;20475;-70
2021/11/10 14:20:09;;;;;;;28.63;18.13;;;9.10;99.90;;;;;;4973134;28;20429;-71
2021/11/10 14:22:35;;;;;;;29.27;16.30;;;9.10;99.90;;;;;;4970007;28;20437;-72
2021/11/10 14:25:04;;;;;;;30.67;18.33;;;9.20;99.90;;;;;;4973317;28;20514;-71
2021/11/10 14:27:37;;;;;;;34.00;18.13;;;9.20;99.90;;;;;;4973364;28;20920;-70
2021/11/10 14:30:05;;;;;;;30.90;17.67;;;9.20;99.90;;;;;;4973085;28;20429;-69
2021/11/10 14:32:33;;;;;;;31.53;18.77;;;9.20;99.90;;;;;;4970964;28;20505;-68
2021/11/10 14:35:00;;;;;;;26.57;16.90;;;9.20;99.90;;;;;;4972236;28;20429;-72
2021/11/10 14:37:26;;;;;;;23.50;16.60;;;9.10;99.90;;;;;;4971016;28;20839;-72
2021/11/10 14:39:52;;;;;;;20.13;16.93;;;9.10;99.90;;;;;;4977657;28;20461;-72
2021/11/10 14:42:34;;;;;;;24.80;16.83;;;9.10;99.90;;;;;;4991611;28;20450;-71
2021/11/10 14:45:21;;;;;;;27.23;16.77;;;9.10;99.90;;;;;;4992555;28;20198;-71
2021/11/10 14:47:58;;;;;;;24.40;16.77;;;9.10;99.90;;;;;;4992034;28;20418;-69
2021/11/10 14:50:29;;;;;;;28.17;18.03;;;9.00;99.90;;;;;;4989867;28;20423;-71
2021/11/10 14:53:14;;;;;;;24.50;17.13;;;9.00;99.90;;;;;;4991451;28;20440;-72
2021/11/10 14:55:43;;;;;;;27.37;16.17;;;9.00;99.90;;;;;;4992310;28;20424;-71
2021/11/10 14:58:20;;;;;;;24.73;17.63;;;9.00;99.90;;;;;;4992325;28;20500;-72
2021/11/10 15:00:49;;;;;;;25.93;16.70;;;9.00;99.90;;;;;;4990474;28;20504;-71
2021/11/10 15:03:24;;;;;;;26.83;17.00;;;9.00;99.90;;;;;;4990779;28;20423;-71
2021/11/10 15:05:50;;;;;;;26.07;18.97;;;8.90;99.90;;;;;;4992458;28;21005;-69
2021/11/10 15:08:16;;;;;;;28.57;16.83;;;8.90;99.90;;;;;;4992181;28;20455;-71
2021/11/10 15:10:58;;;;;;;26.23;17.10;;;8.80;99.90;;;;;;4991813;28;20455;-72
2021/11/10 15:13:24;;;;;;;27.30;16.43;;;8.70;99.90;;;;;;4990631;28;20809;-68
2021/11/10 15:15:57;;;;;;;29.07;17.03;;;8.70;99.90;;;;;;4990190;28;20799;-71
2021/11/10 15:18:24;;;;;;;23.53;15.23;;;8.70;99.90;;;;;;4991699;28;20427;-69
2021/11/10 15:21:04;;;;;;;28.10;15.47;;;8.60;99.90;;;;;;4991533;28;20528;-71
2021/11/10 15:23:30;;;;;;;24.50;17.13;;;8.50;99.90;;;;;;4990688;28;20443;-71
2021/11/10 15:25:55;;;;;;;25.30;16.67;;;8.40;99.90;;;;;;4991415;28;20465;-71
2021/11/10 15:28:24;;;;;;;33.73;17.80;;;8.40;99.90;;;;;;4991714;28;20213;-71
2021/11/10 15:30:56;;;;;;;36.77;18.73;;;8.20;99.90;;;;;;4991507;28;20676;-71
2021/11/10 15:33:24;;;;;;;26.77;17.93;;;8.20;99.90;;;;;;4991572;28;20408;-72
2021/11/10 15:35:52;;;;;;;27.73;18.07;;;8.10;99.90;;;;;;4991541;28;20417;-72
2021/11/10 15:38:22;;;;;;;27.23;17.90;;;8.00;99.90;;;;;;4991608;28;20952;-72
2021/11/10 15:40:51;;;;;;;29.50;17.23;;;7.80;99.90;;;;;;4990444;28;20438;-72
2021/11/10 15:43:17;;;;;;;25.60;17.03;;;7.70;99.90;;;;;;4990865;28;20421;-72
2021/11/10 15:45:46;;;;;;;24.90;15.57;;;7.70;99.90;;;;;;4991393;28;20568;-69
2021/11/10 15:48:12;;;;;;;29.03;16.97;;;7.60;99.90;;;;;;4991423;28;20967;-72
2021/11/10 15:50:38;;;;;;;29.53;16.13;;;7.50;99.90;;;;;;4991620;28;20508;-72
2021/11/10 15:53:05;;;;;;;21.67;14.40;;;7.30;99.90;;;;;;4988802;28;20173;-70
2021/11/10 15:55:31;;;;;;;25.83;15.90;;;7.20;99.90;;;;;;4991690;28;20781;-72
2021/11/10 15:57:57;;;;;;;34.73;16.87;;;7.20;99.90;;;;;;4991554;28;20493;-72
2021/11/10 16:00:25;;;;;;;23.90;16.10;;;7.10;99.90;;;;;;4991558;28;20423;-69
2021/11/10 16:02:51;;;;;;;26.43;16.33;;;6.90;99.90;;;;;;4990397;28;20483;-72
2021/11/10 16:05:26;;;;;;;24.50;16.57;;;6.90;99.90;;;;;;4991211;28;20463;-73
2021/11/10 16:07:52;;;;;;;26.57;16.37;;;6.70;99.90;;;;;;4991657;28;20392;-72
2021/11/10 16:10:18;;;;;;;33.03;17.50;;;6.70;99.90;;;;;;4991558;28;20893;-72
2021/11/10 16:12:44;;;;;;;34.97;19.20;;;6.50;99.90;;;;;;4988066;28;20573;-73
2021/11/10 16:15:10;;;;;;;28.63;17.50;;;6.50;99.90;;;;;;4990600;28;20939;-72
2021/11/10 16:17:36;;;;;;;34.63;17.23;;;6.40;99.90;;;;;;4989981;28;20177;-72
2021/11/10 16:20:04;;;;;;;33.67;16.20;;;6.30;99.90;;;;;;4990755;28;20176;-72
2021/11/10 16:22:29;;;;;;;26.60;16.10;;;6.20;99.90;;;;;;4989507;28;20561;-72
2021/11/10 16:24:55;;;;;;;33.87;18.60;;;6.10;99.90;;;;;;4990174;28;21050;-72
2021/11/10 16:27:24;;;;;;;28.17;17.60;;;6.00;99.90;;;;;;4990754;28;20180;-72
2021/11/10 16:29:53;;;;;;;34.03;17.73;;;5.90;99.90;;;;;;4990394;28;20197;-72
2021/11/10 16:34:52;;;;;;;20.17;14.20;;;5.80;99.90;;;;;;4990473;28;20918;-72
2021/11/10 16:37:18;;;;;;;24.00;14.10;;;5.70;99.90;;;;;;4989404;28;20521;-71
2021/11/10 16:39:44;;;;;;;21.10;15.33;;;5.60;99.90;;;;;;4979109;28;20427;-70
2021/11/10 16:42:09;;;;;;;20.23;14.57;;;5.50;99.90;;;;;;4985202;28;20485;-72
2021/11/10 16:44:36;;;;;;;23.37;15.60;;;5.40;99.90;;;;;;4993976;28;20197;-72
2021/11/10 16:47:03;;;;;;;24.40;15.83;;;5.30;99.90;;;;;;4993670;28;20208;-71
2021/11/10 16:49:29;;;;;;;24.93;15.40;;;5.30;99.90;;;;;;4993824;28;20417;-71
2021/11/10 16:51:54;;;;;;;36.27;17.90;;;5.30;99.90;;;;;;4993538;28;20491;-71
2021/11/10 16:54:20;;;;;;;27.90;18.20;;;5.20;99.90;;;;;;4978317;28;20418;-71
2021/11/10 16:56:46;;;;;;;31.83;18.10;;;5.10;99.90;;;;;;4973840;28;20185;-72
2021/11/10 16:59:14;;;;;;;34.87;18.57;;;5.10;99.90;;;;;;4974569;28;20273;-71
2021/11/10 17:01:41;;;;;;;24.87;16.40;;;5.00;99.90;;;;;;4973988;28;20191;-72
2021/11/10 17:04:07;;;;;;;29.40;15.97;;;4.90;99.90;;;;;;4973779;28;20419;-71
2021/11/10 17:06:33;;;;;;;29.67;16.57;;;4.90;99.90;;;;;;4974187;28;20444;-73
2021/11/10 17:08:59;;;;;;;30.63;15.97;;;4.80;99.90;;;;;;4973941;28;20175;-73
2021/11/10 17:11:24;;;;;;;27.70;17.40;;;4.70;99.90;;;;;;4973981;28;20437;-70
2021/11/10 17:13:50;;;;;;;28.40;17.00;;;4.70;99.90;;;;;;4973467;28;20265;-69
2021/11/10 17:16:16;;;;;;;32.93;17.40;;;4.60;99.90;;;;;;4956614;28;20260;-70
2021/11/10 17:18:41;;;;;;;26.50;15.07;;;4.60;99.90;;;;;;4974051;28;20192;-70
2021/11/10 17:21:08;;;;;;;36.43;17.57;;;4.60;99.90;;;;;;4973952;28;20209;-72
2021/11/10 17:23:34;;;;;;;26.10;17.37;;;4.50;99.90;;;;;;4973084;28;20179;-70